Time;durP1;ratioP1;P1;durP2;ratioP2;P2;SDS_P1;SDS_P2;PMS_P1;PMS_P2;Temp;Humidity;BMP_temperature;BMP_pressure;BME280_temperature;BME280_humidity;BME280_pressure;Samples;Min_cycle;Max_cycle;Signal;HPM_P1;HPM_P2
2024/01/05 00:01:13;;;;;;;20.00;5.82;;;8.50;99.90;;;;;;4947996;28;20029;-75
2024/01/05 00:03:39;;;;;;;25.58;5.93;;;8.50;99.90;;;;;;4947383;28;20032;-75
2024/01/05 00:06:05;;;;;;;25.50;6.22;;;8.50;99.90;;;;;;4943735;28;20528;-75
2024/01/05 00:08:30;;;;;;;30.23;5.90;;;8.50;99.90;;;;;;4951397;28;20047;-75
2024/01/05 00:10:56;;;;;;;25.05;5.32;;;8.60;99.90;;;;;;4951285;29;20058;-75
2024/01/05 00:13:21;;;;;;;32.90;6.18;;;8.50;99.90;;;;;;4951728;28;20117;-75
2024/01/05 00:15:47;;;;;;;27.42;6.22;;;8.60;99.90;;;;;;4951344;28;20054;-75
2024/01/05 00:18:13;;;;;;;25.15;6.43;;;8.60;99.90;;;;;;4951578;28;20097;-75
2024/01/05 00:20:38;;;;;;;25.83;5.90;;;8.60;99.90;;;;;;4951142;28;20407;-74
2024/01/05 00:23:04;;;;;;;22.60;5.47;;;8.60;99.90;;;;;;4949572;29;20418;-75
2024/01/05 00:25:30;;;;;;;26.50;5.32;;;8.60;99.90;;;;;;4947953;28;20059;-74
2024/01/05 00:27:55;;;;;;;28.20;5.50;;;8.50;99.90;;;;;;4951880;28;20115;-75
2024/01/05 00:30:21;;;;;;;24.50;5.53;;;8.50;99.90;;;;;;4951607;28;20051;-75
2024/01/05 00:32:46;;;;;;;24.13;5.75;;;8.60;99.90;;;;;;4951878;28;20293;-75
2024/01/05 00:35:12;;;;;;;26.88;5.88;;;8.60;99.90;;;;;;4950613;28;20028;-75
2024/01/05 00:37:38;;;;;;;32.05;5.55;;;8.60;99.90;;;;;;4951743;28;20031;-74
2024/01/05 00:40:05;;;;;;;23.50;5.85;;;8.60;99.90;;;;;;4939519;28;20099;-75
2024/01/05 00:42:31;;;;;;;29.08;6.15;;;8.60;99.90;;;;;;4942941;28;20035;-75
2024/01/05 00:44:57;;;;;;;33.40;6.25;;;8.70;99.90;;;;;;4951451;28;20015;-75
2024/01/05 00:47:22;;;;;;;29.50;5.75;;;8.70;99.90;;;;;;4951103;28;20397;-75
2024/01/05 00:49:48;;;;;;;29.95;5.75;;;8.70;99.90;;;;;;4951018;29;20038;-75
2024/01/05 00:52:13;;;;;;;20.02;4.93;;;8.70;99.90;;;;;;4948616;28;20373;-75
2024/01/05 00:54:39;;;;;;;21.42;5.15;;;8.70;99.90;;;;;;4940580;28;20613;-75
2024/01/05 00:57:05;;;;;;;25.15;4.97;;;8.70;99.90;;;;;;4951481;28;20019;-75
2024/01/05 00:59:30;;;;;;;26.38;5.57;;;8.70;99.90;;;;;;4951217;28;20491;-75
2024/01/05 01:01:57;;;;;;;20.30;5.20;;;8.80;99.90;;;;;;4940311;28;20495;-75
2024/01/05 01:04:22;;;;;;;25.63;5.63;;;8.80;99.90;;;;;;4951523;29;20022;-74
2024/01/05 01:06:48;;;;;;;33.28;4.95;;;8.80;99.90;;;;;;4948119;28;20039;-75
2024/01/05 01:09:13;;;;;;;25.90;5.28;;;8.80;99.90;;;;;;4949266;28;20476;-75
2024/01/05 01:11:39;;;;;;;26.40;5.10;;;8.80;99.90;;;;;;4947139;28;20106;-75
2024/01/05 01:14:04;;;;;;;24.73;4.82;;;8.80;99.90;;;;;;4949832;28;20031;-75
2024/01/05 01:16:31;;;;;;;27.92;5.25;;;8.80;99.90;;;;;;4950057;28;20023;-74
2024/01/05 01:18:57;;;;;;;27.20;5.70;;;8.80;99.90;;;;;;4949891;28;20087;-75
2024/01/05 01:21:23;;;;;;;26.58;4.82;;;8.80;99.90;;;;;;4951022;28;20046;-75
2024/01/05 01:23:49;;;;;;;21.88;5.43;;;8.80;99.90;;;;;;4946992;28;20024;-75
2024/01/05 01:26:16;;;;;;;21.55;4.85;;;8.80;99.90;;;;;;4951047;28;20377;-75
2024/01/05 01:28:41;;;;;;;18.02;4.53;;;8.80;99.90;;;;;;4950300;28;20078;-75
2024/01/05 01:31:07;;;;;;;25.67;4.88;;;8.80;99.90;;;;;;4942052;28;20055;-75
2024/01/05 01:33:32;;;;;;;21.45;4.80;;;8.80;99.90;;;;;;4938230;28;20762;-75
2024/01/05 01:35:58;;;;;;;21.85;4.38;;;8.80;99.90;;;;;;4943806;28;20053;-75
2024/01/05 01:38:23;;;;;;;19.10;4.03;;;8.80;99.90;;;;;;5014676;28;20012;-75
2024/01/05 01:40:49;;;;;;;25.33;4.95;;;8.80;99.90;;;;;;4950451;29;20034;-75
2024/01/05 01:43:24;;;;;;;21.13;4.38;;;8.80;99.90;;;;;;4950371;28;20104;-75
2024/01/05 01:45:50;;;;;;;22.35;4.82;;;8.80;99.90;;;;;;4949312;28;20023;-75
2024/01/05 01:48:18;;;;;;;22.27;4.78;;;8.80;99.90;;;;;;4949063;28;20407;-74
2024/01/05 01:50:44;;;;;;;27.42;4.53;;;8.80;99.90;;;;;;4947321;28;20023;-74
2024/01/05 01:53:13;;;;;;;22.85;4.82;;;8.90;99.90;;;;;;4941568;28;20096;-74
2024/01/05 01:55:40;;;;;;;22.88;4.55;;;8.90;99.90;;;;;;4945120;28;20122;-74
2024/01/05 01:58:06;;;;;;;18.23;3.95;;;8.90;99.90;;;;;;4946270;28;20503;-74
2024/01/05 02:00:33;;;;;;;17.40;4.00;;;8.90;99.90;;;;;;4950042;28;20057;-74
2024/01/05 02:03:01;;;;;;;20.83;3.88;;;8.90;99.90;;;;;;4942549;28;20090;-75
2024/01/05 02:05:28;;;;;;;18.67;4.20;;;8.90;99.90;;;;;;4949888;29;20015;-75
2024/01/05 02:07:54;;;;;;;24.10;4.53;;;8.90;99.90;;;;;;4939232;28;20030;-75
2024/01/05 02:10:20;;;;;;;20.95;4.18;;;8.90;99.90;;;;;;4949581;28;20023;-75
2024/01/05 02:12:45;;;;;;;24.92;4.95;;;8.90;99.90;;;;;;4944087;28;20024;-75
2024/01/05 02:15:11;;;;;;;23.45;3.88;;;9.00;99.90;;;;;;4946199;28;20032;-75
2024/01/05 02:17:36;;;;;;;19.35;3.78;;;9.00;99.90;;;;;;4946605;28;20039;-75
2024/01/05 02:20:02;;;;;;;19.38;4.05;;;9.00;99.90;;;;;;4949881;28;20027;-75
2024/01/05 02:22:29;;;;;;;18.23;3.38;;;9.00;99.90;;;;;;4949543;28;20035;-75
2024/01/05 02:24:58;;;;;;;17.63;4.07;;;9.00;99.90;;;;;;4937540;28;20080;-75
2024/01/05 02:27:25;;;;;;;16.98;3.83;;;9.00;99.90;;;;;;4949585;28;20023;-75
2024/01/05 02:29:50;;;;;;;21.98;3.78;;;9.00;99.90;;;;;;4949574;28;20027;-75
2024/01/05 02:32:16;;;;;;;21.73;3.78;;;9.00;99.90;;;;;;4945412;29;20108;-75
2024/01/05 02:34:42;;;;;;;16.05;3.08;;;9.00;99.90;;;;;;4934349;28;20039;-75
2024/01/05 02:37:08;;;;;;;18.52;3.90;;;9.00;99.90;;;;;;4947244;28;20097;-75
2024/01/05 02:39:34;;;;;;;15.88;2.90;;;9.10;99.90;;;;;;4944221;28;20396;-75
2024/01/05 02:41:59;;;;;;;19.48;3.50;;;9.00;99.90;;;;;;4946702;28;20116;-75
2024/01/05 02:44:25;;;;;;;19.15;3.00;;;9.10;99.90;;;;;;4950233;28;20042;-75
2024/01/05 02:46:51;;;;;;;16.77;3.03;;;9.10;99.90;;;;;;4949146;28;20042;-75
2024/01/05 02:49:16;;;;;;;15.65;3.00;;;9.10;99.90;;;;;;4949518;28;20023;-75
2024/01/05 02:51:42;;;;;;;15.70;3.03;;;9.10;99.90;;;;;;4949805;28;20023;-75
2024/01/05 02:54:09;;;;;;;13.77;3.17;;;9.10;99.90;;;;;;4938952;28;20031;-75
2024/01/05 02:56:34;;;;;;;18.27;3.53;;;9.10;99.90;;;;;;4949707;28;20023;-75
2024/01/05 02:59:00;;;;;;;15.70;2.70;;;9.10;99.90;;;;;;4949716;28;20388;-75
2024/01/05 03:01:26;;;;;;;16.95;3.13;;;9.10;99.90;;;;;;4949604;28;20111;-75
2024/01/05 03:03:51;;;;;;;23.80;3.08;;;9.10;99.90;;;;;;4949349;28;20142;-75
2024/01/05 03:06:18;;;;;;;15.40;2.92;;;9.10;99.90;;;;;;4949322;28;20027;-75
2024/01/05 03:08:44;;;;;;;21.45;3.15;;;9.10;99.90;;;;;;4949150;28;20015;-75
2024/01/05 03:11:10;;;;;;;16.50;3.70;;;9.10;99.90;;;;;;4948815;28;20107;-75
2024/01/05 03:13:36;;;;;;;17.13;3.33;;;9.20;99.90;;;;;;4949591;28;20036;-75
2024/01/05 03:16:02;;;;;;;16.65;3.22;;;9.10;99.90;;;;;;4949393;28;20024;-75
2024/01/05 03:18:27;;;;;;;11.93;2.75;;;9.20;99.90;;;;;;4949262;28;20511;-75
2024/01/05 03:20:53;;;;;;;24.58;2.63;;;9.20;99.90;;;;;;4949408;28;20451;-75
2024/01/05 03:23:19;;;;;;;19.95;2.90;;;9.20;99.90;;;;;;4937668;28;20308;-75
2024/01/05 03:25:45;;;;;;;16.88;2.85;;;9.20;99.90;;;;;;4948811;28;20480;-75
2024/01/05 03:28:13;;;;;;;10.05;2.63;;;9.20;99.90;;;;;;4945514;28;20023;-75
2024/01/05 03:30:39;;;;;;;15.27;2.78;;;9.30;99.90;;;;;;4944755;28;20035;-75
2024/01/05 03:33:05;;;;;;;19.23;3.60;;;9.30;99.90;;;;;;4948184;28;20031;-75
2024/01/05 03:35:30;;;;;;;14.05;2.22;;;9.30;99.90;;;;;;4948142;28;20483;-75
2024/01/05 03:37:56;;;;;;;12.98;2.72;;;9.30;99.90;;;;;;4948896;28;20074;-75
2024/01/05 03:40:22;;;;;;;10.10;2.30;;;9.30;99.90;;;;;;4947699;28;20030;-74
2024/01/05 03:42:48;;;;;;;14.93;2.67;;;9.30;99.90;;;;;;4946645;28;20073;-74
2024/01/05 03:45:13;;;;;;;13.70;2.97;;;9.30;99.90;;;;;;4948672;28;20015;-74
2024/01/05 03:47:39;;;;;;;12.10;2.90;;;9.20;99.90;;;;;;4948523;28;20034;-75
2024/01/05 03:50:06;;;;;;;14.73;2.72;;;9.20;99.90;;;;;;4943709;29;20066;-74
2024/01/05 03:52:32;;;;;;;8.85;2.13;;;9.20;99.90;;;;;;4946712;29;20081;-75
2024/01/05 03:54:57;;;;;;;12.57;2.42;;;9.20;99.90;;;;;;4948462;28;20031;-74
2024/01/05 03:57:23;;;;;;;16.95;2.53;;;9.20;99.90;;;;;;4948329;28;20495;-74
2024/01/05 03:59:52;;;;;;;15.85;2.67;;;9.20;99.90;;;;;;4948374;29;20038;-74
2024/01/05 04:02:17;;;;;;;12.43;2.50;;;9.10;99.90;;;;;;4947504;29;20096;-74
2024/01/05 04:04:43;;;;;;;12.48;2.38;;;9.10;99.90;;;;;;4948855;28;20031;-74
2024/01/05 04:07:09;;;;;;;12.10;2.38;;;9.10;99.90;;;;;;4948087;28;20491;-75
2024/01/05 04:09:34;;;;;;;11.57;2.88;;;9.10;99.90;;;;;;4939494;28;20030;-74
2024/01/05 04:12:00;;;;;;;11.73;2.20;;;9.10;99.90;;;;;;4942484;28;20059;-75
2024/01/05 04:14:26;;;;;;;15.95;2.35;;;9.10;99.90;;;;;;4942165;28;20035;-74
2024/01/05 04:16:52;;;;;;;14.80;2.10;;;9.10;99.90;;;;;;4948325;28;20034;-75
2024/01/05 04:19:17;;;;;;;13.02;2.15;;;9.10;99.90;;;;;;4948219;28;20038;-74
2024/01/05 04:21:43;;;;;;;13.98;2.72;;;9.10;99.90;;;;;;4949205;28;20361;-74
2024/01/05 04:24:08;;;;;;;14.43;2.33;;;9.20;99.90;;;;;;4939530;28;20539;-75
2024/01/05 04:26:35;;;;;;;9.68;2.20;;;9.10;99.90;;;;;;4948509;28;20031;-75
2024/01/05 04:29:01;;;;;;;10.38;2.15;;;9.10;99.90;;;;;;5028510;28;20110;-74
2024/01/05 04:31:27;;;;;;;6.80;1.83;;;9.10;99.90;;;;;;4948159;28;20500;-74
2024/01/05 04:33:54;;;;;;;7.57;2.13;;;9.20;99.90;;;;;;4946790;29;20024;-75
2024/01/05 04:36:19;;;;;;;14.07;2.28;;;9.20;99.90;;;;;;4947254;28;20027;-75
2024/01/05 04:38:45;;;;;;;9.07;2.22;;;9.20;99.90;;;;;;4948833;28;20078;-74
2024/01/05 04:41:13;;;;;;;12.38;2.30;;;9.20;99.90;;;;;;4948724;29;20024;-75
2024/01/05 04:43:39;;;;;;;12.77;2.10;;;9.20;99.90;;;;;;4949297;28;20120;-75
2024/01/05 04:46:05;;;;;;;8.57;1.85;;;9.20;99.90;;;;;;4948139;28;20483;-75
2024/01/05 04:48:31;;;;;;;4.88;1.50;;;9.20;99.90;;;;;;5016111;28;20465;-74
2024/01/05 04:50:56;;;;;;;10.57;1.80;;;9.20;99.90;;;;;;4944927;28;20065;-75
2024/01/05 04:53:22;;;;;;;9.77;2.13;;;9.20;99.90;;;;;;4944507;28;20135;-74
2024/01/05 04:55:48;;;;;;;10.95;2.22;;;9.20;99.90;;;;;;4941143;28;20031;-74
2024/01/05 04:58:13;;;;;;;8.63;1.85;;;9.20;99.90;;;;;;4953489;28;20023;-75
2024/01/05 05:00:39;;;;;;;9.25;1.88;;;9.20;99.90;;;;;;4951251;28;20046;-75
2024/01/05 05:03:05;;;;;;;10.15;1.88;;;9.10;99.90;;;;;;4940203;28;20028;-73
2024/01/05 05:05:30;;;;;;;8.48;1.65;;;9.10;99.90;;;;;;4949573;28;20463;-73
2024/01/05 05:07:57;;;;;;;6.30;1.58;;;9.10;99.90;;;;;;4942726;28;20101;-73
2024/01/05 05:10:22;;;;;;;8.80;1.65;;;9.10;99.90;;;;;;4948554;28;20066;-73
2024/01/05 05:12:48;;;;;;;5.32;1.33;;;9.00;99.90;;;;;;4948235;29;20058;-73
2024/01/05 05:15:14;;;;;;;5.30;0.93;;;9.00;99.90;;;;;;4951234;28;20038;-75
2024/01/05 05:17:39;;;;;;;4.75;0.90;;;8.90;99.90;;;;;;4938311;28;20058;-74
2024/01/05 05:20:06;;;;;;;4.22;0.88;;;8.90;99.90;;;;;;4940829;28;20476;-74
2024/01/05 05:22:31;;;;;;;3.17;0.90;;;8.80;99.90;;;;;;4950902;28;20042;-73
2024/01/05 05:24:57;;;;;;;2.40;0.75;;;8.70;99.90;;;;;;4950880;28;20389;-73
2024/01/05 05:27:23;;;;;;;3.38;0.60;;;8.70;99.90;;;;;;4943534;28;20495;-73
2024/01/05 05:29:48;;;;;;;1.10;0.47;;;8.60;99.90;;;;;;4945244;28;20059;-73
2024/01/05 05:32:14;;;;;;;2.05;0.73;;;8.50;99.90;;;;;;4950354;28;20028;-73
2024/01/05 05:34:41;;;;;;;1.90;0.60;;;8.50;99.90;;;;;;4940271;28;20028;-73
2024/01/05 05:37:07;;;;;;;6.78;0.63;;;8.50;99.90;;;;;;4946041;28;20015;-73
2024/01/05 05:39:32;;;;;;;2.42;0.73;;;8.50;99.90;;;;;;4948995;28;20027;-73
2024/01/05 05:41:58;;;;;;;3.47;0.80;;;8.40;99.90;;;;;;4942464;29;20111;-73
2024/01/05 05:44:24;;;;;;;3.30;0.50;;;8.40;99.90;;;;;;4933950;28;20024;-73
2024/01/05 05:46:49;;;;;;;0.95;0.50;;;8.40;99.90;;;;;;4933888;28;20028;-73
2024/01/05 05:49:15;;;;;;;1.20;0.70;;;8.40;99.90;;;;;;4935310;28;20063;-73
2024/01/05 05:51:40;;;;;;;3.75;0.73;;;8.40;99.90;;;;;;4950681;28;20032;-73
2024/01/05 05:54:06;;;;;;;1.80;0.50;;;8.40;99.90;;;;;;4940067;28;20032;-73
2024/01/05 05:56:31;;;;;;;2.47;0.60;;;8.40;99.90;;;;;;4950309;28;20585;-73
2024/01/05 05:58:57;;;;;;;2.10;0.60;;;8.40;99.90;;;;;;4950650;28;20017;-73
2024/01/05 06:01:24;;;;;;;0.63;0.30;;;8.40;99.90;;;;;;4949710;28;20589;-73
2024/01/05 06:03:50;;;;;;;2.67;0.50;;;8.40;99.90;;;;;;4949203;28;20400;-73
2024/01/05 06:06:23;;;;;;;1.85;0.45;;;8.40;99.90;;;;;;4946698;28;20024;-73
2024/01/05 06:08:49;;;;;;;3.83;0.55;;;8.40;99.90;;;;;;4943123;28;20365;-73
2024/01/05 06:11:16;;;;;;;0.85;0.57;;;8.30;99.90;;;;;;4940715;28;20042;-74
2024/01/05 06:13:41;;;;;;;0.98;0.60;;;8.30;99.90;;;;;;5015815;28;20030;-73
2024/01/05 06:16:07;;;;;;;2.28;0.60;;;8.30;99.90;;;;;;4949835;28;20410;-73
2024/01/05 06:18:33;;;;;;;2.72;0.70;;;8.30;99.90;;;;;;4948540;28;20055;-74
2024/01/05 06:20:59;;;;;;;3.13;1.10;;;8.30;99.90;;;;;;4949524;28;20110;-73
2024/01/05 06:23:25;;;;;;;2.80;0.80;;;8.20;99.90;;;;;;4946663;28;20059;-74
2024/01/05 06:25:51;;;;;;;4.88;0.90;;;8.20;99.90;;;;;;4947451;28;20058;-74
2024/01/05 06:28:16;;;;;;;2.58;0.70;;;8.10;99.90;;;;;;4949440;28;20083;-74
2024/01/05 06:30:45;;;;;;;2.00;1.00;;;8.10;99.90;;;;;;4937648;29;20022;-74
2024/01/05 06:33:11;;;;;;;0.70;0.70;;;8.10;99.90;;;;;;4944302;28;20046;-74
2024/01/05 06:35:36;;;;;;;2.33;0.90;;;8.10;99.90;;;;;;4949918;28;20085;-74
2024/01/05 06:38:02;;;;;;;2.78;0.88;;;8.00;99.90;;;;;;4945842;28;20034;-74
2024/01/05 06:40:28;;;;;;;1.75;0.70;;;8.00;99.90;;;;;;4949701;29;20028;-74
2024/01/05 06:42:54;;;;;;;1.55;0.77;;;8.00;99.90;;;;;;4947642;28;20019;-74
2024/01/05 06:45:20;;;;;;;3.00;0.88;;;8.00;99.90;;;;;;5006065;28;20047;-74
2024/01/05 06:47:45;;;;;;;1.90;0.90;;;7.90;99.90;;;;;;4939177;28;20085;-74
2024/01/05 06:50:11;;;;;;;3.65;0.88;;;7.90;99.90;;;;;;4949212;29;20084;-74
2024/01/05 06:52:37;;;;;;;5.53;1.00;;;7.80;99.90;;;;;;4948448;29;20027;-74
2024/01/05 06:55:03;;;;;;;7.05;1.20;;;7.80;99.90;;;;;;4945549;28;20410;-74
2024/01/05 06:57:31;;;;;;;2.20;0.80;;;7.80;99.90;;;;;;4947278;28;20035;-74
2024/01/05 06:59:56;;;;;;;1.90;0.90;;;7.80;99.90;;;;;;4948949;28;20450;-74
2024/01/05 07:02:22;;;;;;;3.60;1.00;;;7.70;99.90;;;;;;4948552;28;20085;-74
2024/01/05 07:04:47;;;;;;;3.35;1.30;;;7.70;99.90;;;;;;4949259;28;20117;-74
2024/01/05 07:07:13;;;;;;;5.63;1.17;;;7.70;99.90;;;;;;4942783;29;20033;-74
2024/01/05 07:09:39;;;;;;;3.45;1.20;;;7.70;99.90;;;;;;4943563;28;20020;-74
2024/01/05 07:12:05;;;;;;;2.50;1.42;;;7.70;99.90;;;;;;4944532;28;20543;-74
2024/01/05 07:14:30;;;;;;;2.55;1.35;;;7.70;99.90;;;;;;4947465;29;20065;-74
2024/01/05 07:16:56;;;;;;;4.18;1.35;;;7.70;99.90;;;;;;4946743;28;20295;-74
2024/01/05 07:19:22;;;;;;;3.75;1.40;;;7.70;99.90;;;;;;4947372;28;20496;-75
2024/01/05 07:21:48;;;;;;;3.15;1.60;;;7.60;99.90;;;;;;4947935;29;20042;-74
2024/01/05 07:24:17;;;;;;;1.73;1.48;;;7.60;99.90;;;;;;4937443;29;20024;-74
2024/01/05 07:26:46;;;;;;;4.40;1.50;;;7.60;99.90;;;;;;4938894;28;20114;-74
2024/01/05 07:29:11;;;;;;;2.88;1.48;;;7.60;99.90;;;;;;4944886;28;20031;-75
2024/01/05 07:31:37;;;;;;;2.25;1.55;;;7.50;99.90;;;;;;4944159;28;20076;-75
2024/01/05 07:34:03;;;;;;;3.25;1.50;;;7.50;99.90;;;;;;4948076;28;20161;-73
2024/01/05 07:36:29;;;;;;;2.47;1.50;;;7.50;99.90;;;;;;4947079;28;20023;-73
2024/01/05 07:38:58;;;;;;;4.00;1.80;;;7.40;99.90;;;;;;4946584;29;20031;-74
2024/01/05 07:41:27;;;;;;;2.63;1.50;;;7.50;99.90;;;;;;4946275;29;20015;-73
2024/01/05 07:43:53;;;;;;;5.63;2.05;;;7.40;99.90;;;;;;4945186;29;20046;-73
2024/01/05 07:46:25;;;;;;;4.63;1.80;;;7.40;99.90;;;;;;4947714;28;20468;-73
2024/01/05 07:48:51;;;;;;;4.90;1.92;;;7.40;99.90;;;;;;4943822;28;20039;-73
2024/01/05 07:51:19;;;;;;;4.32;1.60;;;7.40;99.90;;;;;;4942320;28;20031;-73
2024/01/05 07:53:44;;;;;;;2.17;1.50;;;7.40;99.90;;;;;;4948976;28;20027;-73
2024/01/05 07:56:10;;;;;;;3.83;1.70;;;7.40;99.90;;;;;;4946727;28;20494;-73
2024/01/05 07:58:36;;;;;;;4.22;1.80;;;7.40;99.90;;;;;;4945848;28;20403;-73
2024/01/05 08:01:01;;;;;;;4.10;1.98;;;7.40;99.90;;;;;;4939348;28;20036;-73
2024/01/05 08:03:28;;;;;;;2.28;1.80;;;7.40;99.90;;;;;;4947427;28;20033;-73
2024/01/05 08:05:54;;;;;;;4.43;2.50;;;7.30;99.90;;;;;;4938314;28;20030;-73
2024/01/05 08:08:19;;;;;;;3.50;2.17;;;7.40;99.90;;;;;;4944516;28;20028;-73
2024/01/05 08:10:45;;;;;;;4.78;1.85;;;7.30;99.90;;;;;;4948049;28;20024;-74
2024/01/05 08:13:11;;;;;;;3.05;1.98;;;7.30;99.90;;;;;;4947106;28;20015;-73
2024/01/05 08:15:36;;;;;;;2.28;1.90;;;7.30;99.90;;;;;;4946843;28;20123;-74
2024/01/05 08:18:03;;;;;;;2.53;2.00;;;7.30;99.90;;;;;;4946612;28;20058;-73
2024/01/05 08:20:29;;;;;;;3.28;2.13;;;7.30;99.90;;;;;;4941006;28;20024;-73
2024/01/05 08:22:54;;;;;;;2.95;2.40;;;7.30;99.90;;;;;;4940920;28;20388;-74
2024/01/05 08:25:20;;;;;;;3.38;2.38;;;7.30;99.90;;;;;;4937382;28;20024;-73
2024/01/05 08:27:48;;;;;;;3.10;2.80;;;7.30;99.90;;;;;;4951624;28;20110;-74
2024/01/05 08:30:14;;;;;;;4.72;3.20;;;7.30;99.90;;;;;;4951164;28;20027;-74
2024/01/05 08:32:41;;;;;;;4.50;4.03;;;7.30;99.90;;;;;;4939602;28;20028;-74
2024/01/05 08:35:07;;;;;;;5.10;3.72;;;7.30;99.90;;;;;;4951354;28;20035;-74
2024/01/05 08:37:33;;;;;;;11.40;4.50;;;7.30;99.90;;;;;;4950982;28;20023;-74
2024/01/05 08:39:58;;;;;;;5.80;4.28;;;7.30;99.90;;;;;;4942331;28;20055;-74
2024/01/05 08:42:24;;;;;;;6.07;4.85;;;7.30;99.90;;;;;;4950834;28;20511;-74
2024/01/05 08:44:52;;;;;;;8.32;5.78;;;7.40;99.90;;;;;;4950660;28;20395;-74
2024/01/05 08:47:18;;;;;;;9.93;6.05;;;7.40;99.90;;;;;;4941822;28;20028;-74
2024/01/05 08:49:44;;;;;;;8.02;6.10;;;7.40;99.90;;;;;;4950022;28;20038;-74
2024/01/05 08:52:09;;;;;;;10.02;6.30;;;7.40;99.90;;;;;;4950948;28;20074;-74
2024/01/05 08:54:37;;;;;;;9.73;6.70;;;7.40;99.90;;;;;;4947656;28;20028;-74
2024/01/05 08:57:05;;;;;;;10.07;6.43;;;7.40;99.90;;;;;;4938258;28;20051;-74
2024/01/05 08:59:30;;;;;;;9.35;6.57;;;7.40;99.90;;;;;;4946001;28;20023;-74
2024/01/05 09:01:56;;;;;;;8.85;6.50;;;7.40;99.90;;;;;;4948711;28;20012;-74
2024/01/05 09:04:21;;;;;;;10.90;6.22;;;7.50;99.90;;;;;;4942309;29;20027;-74
2024/01/05 09:06:47;;;;;;;9.45;6.47;;;7.50;99.90;;;;;;4948795;28;20081;-74
2024/01/05 09:09:12;;;;;;;11.00;6.70;;;7.40;99.90;;;;;;4947089;28;20094;-72
2024/01/05 09:11:39;;;;;;;13.02;7.07;;;7.50;99.90;;;;;;4950302;28;20081;-73
2024/01/05 09:14:04;;;;;;;11.82;6.53;;;7.50;99.90;;;;;;4945036;28;20030;-73
2024/01/05 09:16:30;;;;;;;9.30;6.57;;;7.50;99.90;;;;;;4950116;28;20330;-74
2024/01/05 09:18:55;;;;;;;13.27;6.78;;;7.50;99.90;;;;;;4943379;28;20102;-74
2024/01/05 09:21:21;;;;;;;11.00;6.80;;;7.50;99.90;;;;;;4949752;28;20051;-74
2024/01/05 09:23:47;;;;;;;11.98;7.10;;;7.50;99.90;;;;;;4947735;28;20024;-74
2024/01/05 09:26:13;;;;;;;12.32;7.28;;;7.60;99.90;;;;;;4947688;28;20444;-74
2024/01/05 09:28:39;;;;;;;12.77;7.50;;;7.60;99.90;;;;;;4945413;28;20110;-74
2024/01/05 09:31:04;;;;;;;11.02;7.47;;;7.60;99.90;;;;;;4942478;28;20151;-74
2024/01/05 09:33:30;;;;;;;10.68;7.10;;;7.60;99.90;;;;;;4944993;29;20036;-74
2024/01/05 09:35:56;;;;;;;12.20;7.53;;;7.60;99.90;;;;;;4944252;28;20023;-74
2024/01/05 09:38:21;;;;;;;13.20;7.38;;;7.70;99.90;;;;;;4942251;28;20028;-74
2024/01/05 09:40:47;;;;;;;12.05;7.45;;;7.70;99.90;;;;;;4949908;28;20031;-74
2024/01/05 09:43:14;;;;;;;12.65;7.07;;;7.70;99.90;;;;;;4948072;28;20110;-74
2024/01/05 09:45:41;;;;;;;11.25;7.30;;;7.80;99.90;;;;;;4944652;28;20035;-74
2024/01/05 09:48:09;;;;;;;10.57;6.97;;;7.80;99.90;;;;;;4946189;28;20031;-74
2024/01/05 09:50:36;;;;;;;12.77;7.55;;;7.80;99.90;;;;;;4961316;28;20119;-74
2024/01/05 09:53:04;;;;;;;11.60;6.18;;;7.80;99.90;;;;;;4953852;28;20050;-74
2024/01/05 09:55:30;;;;;;;11.18;6.32;;;7.90;99.90;;;;;;4954261;28;20532;-74
2024/01/05 09:57:56;;;;;;;9.93;6.35;;;7.90;99.90;;;;;;4945790;28;20019;-74
2024/01/05 10:00:23;;;;;;;11.60;6.30;;;8.00;99.90;;;;;;4950617;28;20108;-74
2024/01/05 10:02:58;;;;;;;9.43;6.15;;;8.00;99.90;;;;;;4949103;28;20050;-74
2024/01/05 10:05:25;;;;;;;10.40;5.43;;;8.00;99.90;;;;;;4947775;28;20028;-74
2024/01/05 10:07:50;;;;;;;8.35;5.03;;;8.00;99.90;;;;;;4948262;29;20027;-74
2024/01/05 10:10:16;;;;;;;7.90;4.57;;;8.00;99.90;;;;;;4951230;28;20038;-74
2024/01/05 10:12:42;;;;;;;6.68;4.13;;;8.00;99.90;;;;;;4949417;29;20110;-74
2024/01/05 10:15:08;;;;;;;7.10;4.03;;;8.10;99.90;;;;;;4948423;28;20036;-74
2024/01/05 10:17:34;;;;;;;7.18;3.58;;;8.00;99.90;;;;;;4947380;28;20070;-74
2024/01/05 10:20:16;;;;;;;8.80;3.72;;;8.00;99.90;;;;;;4949764;29;20019;-74
2024/01/05 10:22:48;;;;;;;5.47;3.15;;;8.10;99.90;;;;;;4950819;28;20024;-74
2024/01/05 10:25:21;;;;;;;4.97;2.72;;;8.10;99.90;;;;;;4947181;28;20163;-74
2024/01/05 10:27:48;;;;;;;7.03;2.78;;;8.10;99.90;;;;;;4948809;29;20119;-74
2024/01/05 10:30:29;;;;;;;3.03;2.17;;;8.10;99.90;;;;;;4951376;28;20046;-74
2024/01/05 10:33:07;;;;;;;5.30;2.78;;;8.10;99.90;;;;;;4949045;29;20024;-74
2024/01/05 10:35:35;;;;;;;4.22;2.30;;;8.10;99.90;;;;;;4939676;28;20040;-74
2024/01/05 10:38:11;;;;;;;6.80;2.40;;;8.10;99.90;;;;;;4947803;28;20024;-74
2024/01/05 10:40:37;;;;;;;5.60;2.35;;;8.20;99.90;;;;;;4951006;29;20459;-74
2024/01/05 10:43:10;;;;;;;9.48;2.60;;;8.20;99.90;;;;;;4947976;28;20595;-74
2024/01/05 10:45:37;;;;;;;4.47;2.20;;;8.20;99.90;;;;;;4944278;29;20686;-74
2024/01/05 10:48:05;;;;;;;5.70;2.63;;;8.20;99.90;;;;;;4948058;29;20043;-74
2024/01/05 10:50:34;;;;;;;7.97;2.70;;;8.30;99.90;;;;;;4952603;28;20034;-74
2024/01/05 10:53:02;;;;;;;12.80;3.30;;;8.30;99.90;;;;;;4949414;29;20026;-74
2024/01/05 10:55:28;;;;;;;12.07;3.97;;;8.40;99.90;;;;;;4946574;28;20354;-74
2024/01/05 10:57:54;;;;;;;18.08;5.30;;;8.40;99.90;;;;;;4950032;29;20028;-74
2024/01/05 11:00:24;;;;;;;18.35;5.70;;;8.50;99.90;;;;;;4949476;29;20070;-74
2024/01/05 11:02:52;;;;;;;16.95;5.97;;;8.60;99.90;;;;;;4948718;28;20031;-74
2024/01/05 11:05:20;;;;;;;20.50;6.20;;;8.60;99.90;;;;;;4949090;29;20499;-74
2024/01/05 11:07:48;;;;;;;19.83;5.70;;;8.70;99.90;;;;;;4949437;28;20016;-74
2024/01/05 11:10:35;;;;;;;21.85;6.20;;;8.70;99.90;;;;;;4939581;28;20080;-74
2024/01/05 11:13:11;;;;;;;15.55;5.65;;;8.80;99.90;;;;;;4947939;28;20027;-74
2024/01/05 11:15:40;;;;;;;20.38;6.90;;;8.90;99.90;;;;;;5030487;28;20031;-74
2024/01/05 11:18:31;;;;;;;28.88;8.85;;;8.90;99.90;;;;;;4944080;28;20150;-75
2024/01/05 11:21:17;;;;;;;26.10;11.05;;;9.00;99.90;;;;;;4948442;28;20038;-75
2024/01/05 11:23:44;;;;;;;21.17;10.75;;;9.10;99.90;;;;;;4947467;28;20054;-74
2024/01/05 11:26:35;;;;;;;25.40;11.48;;;9.00;99.90;;;;;;4948304;28;20089;-75
2024/01/05 11:29:04;;;;;;;22.08;13.35;;;9.00;99.90;;;;;;5029048;28;20035;-74
2024/01/05 11:31:51;;;;;;;31.35;14.70;;;9.00;99.90;;;;;;4948789;28;20027;-75
2024/01/05 11:34:37;;;;;;;23.48;14.35;;;8.90;99.90;;;;;;4947897;28;20484;-72
2024/01/05 11:37:07;;;;;;;25.38;13.88;;;8.80;99.90;;;;;;5026922;28;20046;-74
2024/01/05 11:39:53;;;;;;;19.15;13.00;;;8.80;99.90;;;;;;4953503;28;20042;-75
2024/01/05 11:42:24;;;;;;;21.10;12.65;;;8.70;99.90;;;;;;4948594;28;20035;-74
2024/01/05 11:44:53;;;;;;;12.65;9.68;;;8.70;99.90;;;;;;4947895;28;20027;-74
2024/01/05 11:47:38;;;;;;;12.35;9.38;;;8.70;99.90;;;;;;5013983;28;20129;-74
2024/01/05 11:50:22;;;;;;;14.27;10.13;;;8.70;99.90;;;;;;5031435;28;20042;-74
2024/01/05 11:52:48;;;;;;;14.00;10.35;;;8.60;99.90;;;;;;4947960;28;20036;-74
2024/01/05 11:55:13;;;;;;;10.40;8.30;;;8.50;99.90;;;;;;4948161;29;20034;-74
2024/01/05 11:57:39;;;;;;;9.60;7.65;;;8.50;99.90;;;;;;4947947;28;20480;-74
2024/01/05 12:00:06;;;;;;;12.35;7.30;;;8.50;99.90;;;;;;4947679;28;20034;-74
2024/01/05 12:02:31;;;;;;;9.48;6.45;;;8.50;99.90;;;;;;4950191;28;20393;-74
2024/01/05 12:04:57;;;;;;;9.07;6.13;;;8.50;99.90;;;;;;4951418;28;20027;-74
2024/01/05 12:07:25;;;;;;;6.07;4.90;;;8.40;99.90;;;;;;5033116;28;20027;-76
2024/01/05 12:09:52;;;;;;;7.05;4.93;;;8.40;99.90;;;;;;4948450;29;20094;-74
2024/01/05 12:12:18;;;;;;;5.20;4.10;;;8.40;99.90;;;;;;4950686;28;20039;-74
2024/01/05 12:14:43;;;;;;;3.92;3.53;;;8.40;99.90;;;;;;5030651;28;20392;-75
2024/01/05 12:17:16;;;;;;;5.15;3.75;;;8.30;99.90;;;;;;4948457;28;20054;-75
2024/01/05 12:19:41;;;;;;;4.65;3.08;;;8.30;99.90;;;;;;4985888;28;20428;-75
2024/01/05 12:22:07;;;;;;;3.13;2.40;;;8.30;99.90;;;;;;4950121;28;20027;-75
2024/01/05 12:24:33;;;;;;;3.88;2.55;;;8.30;99.90;;;;;;4951117;28;20399;-75
2024/01/05 12:26:59;;;;;;;3.17;2.20;;;8.30;99.90;;;;;;4951478;29;20027;-75
2024/01/05 12:29:26;;;;;;;2.85;2.50;;;8.30;99.90;;;;;;4949720;28;20058;-75
2024/01/05 12:31:52;;;;;;;2.58;2.13;;;8.20;99.90;;;;;;4950442;28;20031;-75
2024/01/05 12:34:18;;;;;;;3.75;2.40;;;8.20;99.90;;;;;;4945751;28;20597;-75
2024/01/05 12:36:44;;;;;;;4.55;2.38;;;8.20;99.90;;;;;;4942382;28;20023;-75
2024/01/05 12:39:10;;;;;;;4.43;2.30;;;8.20;99.90;;;;;;4951079;28;20438;-75
2024/01/05 12:41:39;;;;;;;2.72;2.50;;;8.20;99.90;;;;;;4954688;28;20051;-75
2024/01/05 12:44:07;;;;;;;4.82;2.80;;;8.20;99.90;;;;;;4951236;29;20024;-74
2024/01/05 12:46:41;;;;;;;4.18;2.88;;;8.20;99.90;;;;;;4950026;28;20031;-75
2024/01/05 12:49:19;;;;;;;4.93;3.00;;;8.20;99.90;;;;;;4943695;28;20105;-74